sensor_id;sensor_type;location;lat;lon;timestamp;temperature;humidity
65460;DHT22;52058;49.822;6.754;2023-05-16T00:01:00;12.72;81.33
65460;DHT22;52058;49.822;6.754;2023-05-16T00:03:26;12.70;81.57
65460;DHT22;52058;49.822;6.754;2023-05-16T00:05:54;12.65;81.59
65460;DHT22;52058;49.822;6.754;2023-05-16T00:08:23;12.69;81.66
65460;DHT22;52058;49.822;6.754;2023-05-16T00:10:50;12.70;81.48
65460;DHT22;52058;49.822;6.754;2023-05-16T00:13:17;12.63;81.78
65460;DHT22;52058;49.822;6.754;2023-05-16T00:15:49;12.63;81.92
65460;DHT22;52058;49.822;6.754;2023-05-16T00:18:16;12.62;82.20
65460;DHT22;52058;49.822;6.754;2023-05-16T00:20:43;12.63;81.91
65460;DHT22;52058;49.822;6.754;2023-05-16T00:23:10;12.72;81.42
65460;DHT22;52058;49.822;6.754;2023-05-16T00:25:38;12.67;81.55
65460;DHT22;52058;49.822;6.754;2023-05-16T00:28:05;12.66;81.57
65460;DHT22;52058;49.822;6.754;2023-05-16T00:30:32;12.63;81.72
65460;DHT22;52058;49.822;6.754;2023-05-16T00:32:59;12.63;82.01
65460;DHT22;52058;49.822;6.754;2023-05-16T00:35:26;12.60;81.67
65460;DHT22;52058;49.822;6.754;2023-05-16T00:37:52;12.62;81.73
65460;DHT22;52058;49.822;6.754;2023-05-16T00:40:19;12.63;82.18
65460;DHT22;52058;49.822;6.754;2023-05-16T00:42:47;12.65;81.42
65460;DHT22;52058;49.822;6.754;2023-05-16T00:45:13;12.62;81.22
65460;DHT22;52058;49.822;6.754;2023-05-16T00:47:40;12.63;81.54
65460;DHT22;52058;49.822;6.754;2023-05-16T00:50:07;12.62;82.24
65460;DHT22;52058;49.822;6.754;2023-05-16T00:52:34;12.62;82.38
65460;DHT22;52058;49.822;6.754;2023-05-16T00:55:01;12.62;81.92
65460;DHT22;52058;49.822;6.754;2023-05-16T00:57:28;12.57;82.37
65460;DHT22;52058;49.822;6.754;2023-05-16T00:59:56;12.60;82.57
65460;DHT22;52058;49.822;6.754;2023-05-16T01:02:23;12.65;82.29
65460;DHT22;52058;49.822;6.754;2023-05-16T01:04:53;12.62;82.52
65460;DHT22;52058;49.822;6.754;2023-05-16T01:07:20;12.60;82.73
65460;DHT22;52058;49.822;6.754;2023-05-16T01:09:47;12.57;82.85
65460;DHT22;52058;49.822;6.754;2023-05-16T01:12:21;12.48;82.69
65460;DHT22;52058;49.822;6.754;2023-05-16T01:14:59;12.50;82.94
65460;DHT22;52058;49.822;6.754;2023-05-16T01:17:34;12.52;83.54
65460;DHT22;52058;49.822;6.754;2023-05-16T01:20:08;12.50;83.96
65460;DHT22;52058;49.822;6.754;2023-05-16T01:22:51;12.50;82.76
65460;DHT22;52058;49.822;6.754;2023-05-16T01:25:30;12.49;81.34
65460;DHT22;52058;49.822;6.754;2023-05-16T01:27:58;12.46;81.44
65460;DHT22;52058;49.822;6.754;2023-05-16T01:30:27;12.46;80.84
65460;DHT22;52058;49.822;6.754;2023-05-16T01:32:57;12.45;81.60
65460;DHT22;52058;49.822;6.754;2023-05-16T01:35:23;12.46;80.59
65460;DHT22;52058;49.822;6.754;2023-05-16T01:37:57;12.41;81.30
65460;DHT22;52058;49.822;6.754;2023-05-16T01:40:32;12.49;81.04
65460;DHT22;52058;49.822;6.754;2023-05-16T01:43:04;12.52;81.17
65460;DHT22;52058;49.822;6.754;2023-05-16T01:45:38;12.49;80.90
65460;DHT22;52058;49.822;6.754;2023-05-16T01:48:08;12.45;81.99
65460;DHT22;52058;49.822;6.754;2023-05-16T01:50:40;12.39;81.14
65460;DHT22;52058;49.822;6.754;2023-05-16T01:53:10;12.41;82.09
65460;DHT22;52058;49.822;6.754;2023-05-16T01:55:41;12.39;82.28
65460;DHT22;52058;49.822;6.754;2023-05-16T01:58:11;12.36;82.19
65460;DHT22;52058;49.822;6.754;2023-05-16T02:00:38;12.29;82.31
65460;DHT22;52058;49.822;6.754;2023-05-16T02:03:05;12.34;82.54
65460;DHT22;52058;49.822;6.754;2023-05-16T02:05:31;12.35;82.80
65460;DHT22;52058;49.822;6.754;2023-05-16T02:07:58;12.35;82.22
65460;DHT22;52058;49.822;6.754;2023-05-16T02:10:25;12.36;81.67
65460;DHT22;52058;49.822;6.754;2023-05-16T02:12:52;12.35;81.65
65460;DHT22;52058;49.822;6.754;2023-05-16T02:15:20;12.38;81.88
65460;DHT22;52058;49.822;6.754;2023-05-16T02:17:46;12.32;82.09
65460;DHT22;52058;49.822;6.754;2023-05-16T02:20:13;12.32;82.17
65460;DHT22;52058;49.822;6.754;2023-05-16T02:22:39;12.26;81.88
65460;DHT22;52058;49.822;6.754;2023-05-16T02:25:07;12.28;82.01
65460;DHT22;52058;49.822;6.754;2023-05-16T02:27:34;12.20;82.51
65460;DHT22;52058;49.822;6.754;2023-05-16T02:30:01;12.14;82.17
65460;DHT22;52058;49.822;6.754;2023-05-16T02:32:30;12.11;82.32
65460;DHT22;52058;49.822;6.754;2023-05-16T02:34:56;11.99;82.35
65460;DHT22;52058;49.822;6.754;2023-05-16T02:37:23;11.91;82.24
65460;DHT22;52058;49.822;6.754;2023-05-16T02:39:50;11.93;82.81
65460;DHT22;52058;49.822;6.754;2023-05-16T02:42:16;11.84;82.69
65460;DHT22;52058;49.822;6.754;2023-05-16T02:44:43;11.77;83.01
65460;DHT22;52058;49.822;6.754;2023-05-16T02:47:09;11.76;83.20
65460;DHT22;52058;49.822;6.754;2023-05-16T02:49:37;11.70;83.02
65460;DHT22;52058;49.822;6.754;2023-05-16T02:52:05;11.74;83.48
65460;DHT22;52058;49.822;6.754;2023-05-16T02:54:31;11.76;83.60
65460;DHT22;52058;49.822;6.754;2023-05-16T02:56:58;11.74;83.77
65460;DHT22;52058;49.822;6.754;2023-05-16T02:59:25;11.66;83.80
65460;DHT22;52058;49.822;6.754;2023-05-16T03:01:51;11.63;83.96
65460;DHT22;52058;49.822;6.754;2023-05-16T03:04:18;11.59;83.68
65460;DHT22;52058;49.822;6.754;2023-05-16T03:06:46;11.53;83.77
65460;DHT22;52058;49.822;6.754;2023-05-16T03:09:12;11.39;84.12
65460;DHT22;52058;49.822;6.754;2023-05-16T03:11:39;11.43;84.14
65460;DHT22;52058;49.822;6.754;2023-05-16T03:14:05;11.43;83.52
65460;DHT22;52058;49.822;6.754;2023-05-16T03:16:32;11.37;84.07
65460;DHT22;52058;49.822;6.754;2023-05-16T03:19:00;11.42;84.12
65460;DHT22;52058;49.822;6.754;2023-05-16T03:21:27;11.35;83.88
65460;DHT22;52058;49.822;6.754;2023-05-16T03:23:55;11.29;84.52
65460;DHT22;52058;49.822;6.754;2023-05-16T03:26:22;11.28;84.54
65460;DHT22;52058;49.822;6.754;2023-05-16T03:28:49;11.29;84.50
65460;DHT22;52058;49.822;6.754;2023-05-16T03:31:16;11.15;84.59
65460;DHT22;52058;49.822;6.754;2023-05-16T03:33:43;11.22;84.75
65460;DHT22;52058;49.822;6.754;2023-05-16T03:36:09;11.15;85.25
65460;DHT22;52058;49.822;6.754;2023-05-16T03:38:36;11.12;85.58
65460;DHT22;52058;49.822;6.754;2023-05-16T03:41:04;11.09;85.85
65460;DHT22;52058;49.822;6.754;2023-05-16T03:43:31;11.09;86.97
65460;DHT22;52058;49.822;6.754;2023-05-16T03:45:57;11.12;86.94
65460;DHT22;52058;49.822;6.754;2023-05-16T03:48:26;11.08;87.03
65460;DHT22;52058;49.822;6.754;2023-05-16T03:50:52;11.05;87.65
65460;DHT22;52058;49.822;6.754;2023-05-16T03:53:19;11.02;87.89
65460;DHT22;52058;49.822;6.754;2023-05-16T03:55:46;10.92;89.06
65460;DHT22;52058;49.822;6.754;2023-05-16T03:58:13;10.92;89.51
65460;DHT22;52058;49.822;6.754;2023-05-16T04:00:40;10.94;90.09
65460;DHT22;52058;49.822;6.754;2023-05-16T04:03:07;10.91;89.33
65460;DHT22;52058;49.822;6.754;2023-05-16T04:05:33;10.81;89.98
65460;DHT22;52058;49.822;6.754;2023-05-16T04:08:00;10.81;90.13
65460;DHT22;52058;49.822;6.754;2023-05-16T04:10:26;10.78;91.48
65460;DHT22;52058;49.822;6.754;2023-05-16T04:12:53;10.79;90.10
65460;DHT22;52058;49.822;6.754;2023-05-16T04:15:21;10.84;89.06
65460;DHT22;52058;49.822;6.754;2023-05-16T04:17:48;10.79;90.02
65460;DHT22;52058;49.822;6.754;2023-05-16T04:20:14;10.77;89.96
65460;DHT22;52058;49.822;6.754;2023-05-16T04:22:41;10.81;91.80
65460;DHT22;52058;49.822;6.754;2023-05-16T04:25:08;10.79;88.45
65460;DHT22;52058;49.822;6.754;2023-05-16T04:27:35;10.70;88.74
65460;DHT22;52058;49.822;6.754;2023-05-16T04:30:03;10.70;89.20
65460;DHT22;52058;49.822;6.754;2023-05-16T04:32:31;10.64;89.85
65460;DHT22;52058;49.822;6.754;2023-05-16T04:34:59;10.61;91.23
65460;DHT22;52058;49.822;6.754;2023-05-16T04:37:26;10.57;91.10
65460;DHT22;52058;49.822;6.754;2023-05-16T04:39:52;10.58;90.40
65460;DHT22;52058;49.822;6.754;2023-05-16T04:42:19;10.58;92.09
65460;DHT22;52058;49.822;6.754;2023-05-16T04:44:46;10.58;92.27
65460;DHT22;52058;49.822;6.754;2023-05-16T04:47:13;10.57;92.27
65460;DHT22;52058;49.822;6.754;2023-05-16T04:49:41;10.61;93.02
65460;DHT22;52058;49.822;6.754;2023-05-16T04:52:07;10.60;94.00
65460;DHT22;52058;49.822;6.754;2023-05-16T04:54:34;10.58;93.58
65460;DHT22;52058;49.822;6.754;2023-05-16T04:57:00;10.60;92.79
65460;DHT22;52058;49.822;6.754;2023-05-16T04:59:27;10.64;92.02
65460;DHT22;52058;49.822;6.754;2023-05-16T05:01:53;10.65;92.39
65460;DHT22;52058;49.822;6.754;2023-05-16T05:04:20;10.63;91.91
65460;DHT22;52058;49.822;6.754;2023-05-16T05:06:48;10.63;92.35
65460;DHT22;52058;49.822;6.754;2023-05-16T05:09:14;10.64;93.77
65460;DHT22;52058;49.822;6.754;2023-05-16T05:11:41;10.65;93.91
65460;DHT22;52058;49.822;6.754;2023-05-16T05:14:07;10.58;92.90
65460;DHT22;52058;49.822;6.754;2023-05-16T05:16:34;10.57;93.37
65460;DHT22;52058;49.822;6.754;2023-05-16T05:19:01;10.58;91.82
65460;DHT22;52058;49.822;6.754;2023-05-16T05:21:28;10.65;93.47
65460;DHT22;52058;49.822;6.754;2023-05-16T05:23:56;10.57;92.44
65460;DHT22;52058;49.822;6.754;2023-05-16T05:26:22;10.58;94.52
65460;DHT22;52058;49.822;6.754;2023-05-16T05:28:50;10.57;93.14
65460;DHT22;52058;49.822;6.754;2023-05-16T05:31:17;10.56;93.19
65460;DHT22;52058;49.822;6.754;2023-05-16T05:33:43;10.57;92.75
65460;DHT22;52058;49.822;6.754;2023-05-16T05:36:10;10.53;93.37
65460;DHT22;52058;49.822;6.754;2023-05-16T05:38:37;10.63;92.72
65460;DHT22;52058;49.822;6.754;2023-05-16T05:41:05;10.60;92.68
65460;DHT22;52058;49.822;6.754;2023-05-16T05:43:31;10.63;92.51
65460;DHT22;52058;49.822;6.754;2023-05-16T05:45:58;10.58;92.79
65460;DHT22;52058;49.822;6.754;2023-05-16T05:48:25;10.65;92.06
65460;DHT22;52058;49.822;6.754;2023-05-16T05:50:52;10.77;92.97
65460;DHT22;52058;49.822;6.754;2023-05-16T05:53:19;10.84;92.77
65460;DHT22;52058;49.822;6.754;2023-05-16T05:55:45;10.87;91.35
65460;DHT22;52058;49.822;6.754;2023-05-16T05:58:13;10.89;89.91
65460;DHT22;52058;49.822;6.754;2023-05-16T06:00:40;10.85;91.81
65460;DHT22;52058;49.822;6.754;2023-05-16T06:03:07;10.87;90.75
65460;DHT22;52058;49.822;6.754;2023-05-16T06:05:36;10.88;91.70
65460;DHT22;52058;49.822;6.754;2023-05-16T06:08:03;10.98;92.28
65460;DHT22;52058;49.822;6.754;2023-05-16T06:10:29;11.02;91.70
65460;DHT22;52058;49.822;6.754;2023-05-16T06:12:56;11.11;90.24
65460;DHT22;52058;49.822;6.754;2023-05-16T06:15:24;11.02;90.98
65460;DHT22;52058;49.822;6.754;2023-05-16T06:17:50;11.08;91.97
65460;DHT22;52058;49.822;6.754;2023-05-16T06:20:17;11.06;91.48
65460;DHT22;52058;49.822;6.754;2023-05-16T06:22:43;11.06;92.23
65460;DHT22;52058;49.822;6.754;2023-05-16T06:25:10;11.12;91.91
65460;DHT22;52058;49.822;6.754;2023-05-16T06:27:37;11.08;91.91
65460;DHT22;52058;49.822;6.754;2023-05-16T06:30:04;11.06;91.43
65460;DHT22;52058;49.822;6.754;2023-05-16T06:32:32;11.09;89.42
65460;DHT22;52058;49.822;6.754;2023-05-16T06:34:59;11.04;90.87
65460;DHT22;52058;49.822;6.754;2023-05-16T06:37:25;10.95;90.33
65460;DHT22;52058;49.822;6.754;2023-05-16T06:39:52;10.97;89.87
65460;DHT22;52058;49.822;6.754;2023-05-16T06:42:19;10.97;89.94
65460;DHT22;52058;49.822;6.754;2023-05-16T06:44:45;10.87;89.38
65460;DHT22;52058;49.822;6.754;2023-05-16T06:47:12;10.87;88.08
65460;DHT22;52058;49.822;6.754;2023-05-16T06:49:40;11.04;89.52
65460;DHT22;52058;49.822;6.754;2023-05-16T06:52:06;10.89;88.36
65460;DHT22;52058;49.822;6.754;2023-05-16T06:54:33;11.05;88.31
65460;DHT22;52058;49.822;6.754;2023-05-16T06:56:59;11.09;86.19
65460;DHT22;52058;49.822;6.754;2023-05-16T06:59:27;10.94;85.51
65460;DHT22;52058;49.822;6.754;2023-05-16T07:01:54;10.87;86.11
65460;DHT22;52058;49.822;6.754;2023-05-16T07:04:20;11.11;85.99
65460;DHT22;52058;49.822;6.754;2023-05-16T07:06:48;11.16;84.71
65460;DHT22;52058;49.822;6.754;2023-05-16T07:09:15;10.94;85.70
65460;DHT22;52058;49.822;6.754;2023-05-16T07:11:41;10.88;85.61
65460;DHT22;52058;49.822;6.754;2023-05-16T07:14:08;10.85;86.16
65460;DHT22;52058;49.822;6.754;2023-05-16T07:16:35;10.77;85.96
65460;DHT22;52058;49.822;6.754;2023-05-16T07:19:01;10.72;84.89
65460;DHT22;52058;49.822;6.754;2023-05-16T07:21:28;10.60;84.89
65460;DHT22;52058;49.822;6.754;2023-05-16T07:23:56;10.53;84.39
65460;DHT22;52058;49.822;6.754;2023-05-16T07:26:23;10.34;83.85
65460;DHT22;52058;49.822;6.754;2023-05-16T07:28:49;10.51;86.00
65460;DHT22;52058;49.822;6.754;2023-05-16T07:31:16;10.64;86.53
65460;DHT22;52058;49.822;6.754;2023-05-16T07:33:43;10.68;84.91
65460;DHT22;52058;49.822;6.754;2023-05-16T07:36:11;10.87;84.34
65460;DHT22;52058;49.822;6.754;2023-05-16T07:38:37;11.16;82.75
65460;DHT22;52058;49.822;6.754;2023-05-16T07:41:05;11.42;82.48
65460;DHT22;52058;49.822;6.754;2023-05-16T07:43:32;11.67;80.94
65460;DHT22;52058;49.822;6.754;2023-05-16T07:46:00;11.86;80.79
65460;DHT22;52058;49.822;6.754;2023-05-16T07:48:26;11.33;78.53
65460;DHT22;52058;49.822;6.754;2023-05-16T07:50:53;11.66;80.09
65460;DHT22;52058;49.822;6.754;2023-05-16T07:53:20;11.65;79.16
65460;DHT22;52058;49.822;6.754;2023-05-16T07:55:46;11.93;79.36
65460;DHT22;52058;49.822;6.754;2023-05-16T07:58:15;12.25;78.55
65460;DHT22;52058;49.822;6.754;2023-05-16T08:00:41;12.18;78.89
65460;DHT22;52058;49.822;6.754;2023-05-16T08:03:08;11.91;79.30
65460;DHT22;52058;49.822;6.754;2023-05-16T08:05:34;11.28;79.31
65460;DHT22;52058;49.822;6.754;2023-05-16T08:08:01;11.04;80.09
65460;DHT22;52058;49.822;6.754;2023-05-16T08:10:27;10.71;80.10
65460;DHT22;52058;49.822;6.754;2023-05-16T08:12:54;10.75;80.96
65460;DHT22;52058;49.822;6.754;2023-05-16T08:15:22;10.94;81.91
65460;DHT22;52058;49.822;6.754;2023-05-16T08:17:49;11.08;79.20
65460;DHT22;52058;49.822;6.754;2023-05-16T08:20:16;11.43;78.03
65460;DHT22;52058;49.822;6.754;2023-05-16T08:22:42;11.66;77.56
65460;DHT22;52058;49.822;6.754;2023-05-16T08:25:09;12.01;75.60
65460;DHT22;52058;49.822;6.754;2023-05-16T08:27:35;12.42;74.70
65460;DHT22;52058;49.822;6.754;2023-05-16T08:30:02;13.13;75.82
65460;DHT22;52058;49.822;6.754;2023-05-16T08:32:30;13.48;75.39
65460;DHT22;52058;49.822;6.754;2023-05-16T08:34:57;13.31;72.88
65460;DHT22;52058;49.822;6.754;2023-05-16T08:37:24;13.50;72.57
65460;DHT22;52058;49.822;6.754;2023-05-16T08:39:50;13.95;72.43
65460;DHT22;52058;49.822;6.754;2023-05-16T08:42:17;13.78;72.70
65460;DHT22;52058;49.822;6.754;2023-05-16T08:44:43;13.69;70.64
65460;DHT22;52058;49.822;6.754;2023-05-16T08:47:11;13.75;70.33
65460;DHT22;52058;49.822;6.754;2023-05-16T08:49:42;13.55;70.37
65460;DHT22;52058;49.822;6.754;2023-05-16T08:52:09;13.51;70.20
65460;DHT22;52058;49.822;6.754;2023-05-16T08:54:36;13.57;69.76
65460;DHT22;52058;49.822;6.754;2023-05-16T08:57:04;13.51;68.00
65460;DHT22;52058;49.822;6.754;2023-05-16T08:59:31;14.05;70.36
65460;DHT22;52058;49.822;6.754;2023-05-16T09:01:58;14.16;67.88
65460;DHT22;52058;49.822;6.754;2023-05-16T09:04:25;14.58;67.14
65460;DHT22;52058;49.822;6.754;2023-05-16T09:06:53;14.96;67.47
65460;DHT22;52058;49.822;6.754;2023-05-16T09:09:19;15.19;67.60
65460;DHT22;52058;49.822;6.754;2023-05-16T09:11:46;14.93;64.67
65460;DHT22;52058;49.822;6.754;2023-05-16T09:14:13;15.43;64.82
65460;DHT22;52058;49.822;6.754;2023-05-16T09:16:39;15.18;63.36
65460;DHT22;52058;49.822;6.754;2023-05-16T09:19:06;15.18;63.58
65460;DHT22;52058;49.822;6.754;2023-05-16T09:21:33;15.26;64.36
65460;DHT22;52058;49.822;6.754;2023-05-16T09:24:07;14.98;64.42
65460;DHT22;52058;49.822;6.754;2023-05-16T09:26:36;14.40;64.77
65460;DHT22;52058;49.822;6.754;2023-05-16T09:29:09;14.06;64.66
65460;DHT22;52058;49.822;6.754;2023-05-16T09:31:37;13.87;66.74
65460;DHT22;52058;49.822;6.754;2023-05-16T09:34:06;13.98;64.88
65460;DHT22;52058;49.822;6.754;2023-05-16T09:36:33;14.77;65.37
65460;DHT22;52058;49.822;6.754;2023-05-16T09:39:00;14.85;62.50
65460;DHT22;52058;49.822;6.754;2023-05-16T09:41:32;15.20;62.65
65460;DHT22;52058;49.822;6.754;2023-05-16T09:44:02;14.99;61.36
65460;DHT22;52058;49.822;6.754;2023-05-16T09:46:29;15.15;61.47
65460;DHT22;52058;49.822;6.754;2023-05-16T09:48:56;15.29;60.64
65460;DHT22;52058;49.822;6.754;2023-05-16T09:51:22;15.22;61.10
65460;DHT22;52058;49.822;6.754;2023-05-16T09:53:49;15.03;59.71
65460;DHT22;52058;49.822;6.754;2023-05-16T09:56:16;15.19;61.07
65460;DHT22;52058;49.822;6.754;2023-05-16T09:58:44;15.05;61.17
65460;DHT22;52058;49.822;6.754;2023-05-16T10:01:11;15.35;63.96
65460;DHT22;52058;49.822;6.754;2023-05-16T10:03:39;14.96;60.36
65460;DHT22;52058;49.822;6.754;2023-05-16T10:06:07;15.08;60.18
65460;DHT22;52058;49.822;6.754;2023-05-16T10:08:35;14.67;60.45
65460;DHT22;52058;49.822;6.754;2023-05-16T10:11:03;14.48;60.10
65460;DHT22;52058;49.822;6.754;2023-05-16T10:13:31;14.41;60.45
65460;DHT22;52058;49.822;6.754;2023-05-16T10:16:01;14.20;60.58
65460;DHT22;52058;49.822;6.754;2023-05-16T10:18:32;14.06;59.99
65460;DHT22;52058;49.822;6.754;2023-05-16T10:21:03;14.65;61.05
65460;DHT22;52058;49.822;6.754;2023-05-16T10:23:32;14.48;59.96
65460;DHT22;52058;49.822;6.754;2023-05-16T10:26:00;14.77;60.52
65460;DHT22;52058;49.822;6.754;2023-05-16T10:28:28;14.54;61.32
65460;DHT22;52058;49.822;6.754;2023-05-16T10:30:55;13.83;60.93
65460;DHT22;52058;49.822;6.754;2023-05-16T10:33:24;13.92;61.93
65460;DHT22;52058;49.822;6.754;2023-05-16T10:35:51;13.45;61.84
65460;DHT22;52058;49.822;6.754;2023-05-16T10:38:18;13.28;62.18
65460;DHT22;52058;49.822;6.754;2023-05-16T10:40:47;13.35;62.92
65460;DHT22;52058;49.822;6.754;2023-05-16T10:43:22;13.37;61.80
65460;DHT22;52058;49.822;6.754;2023-05-16T10:45:53;13.57;60.86
65460;DHT22;52058;49.822;6.754;2023-05-16T10:48:27;13.63;60.62
65460;DHT22;52058;49.822;6.754;2023-05-16T10:50:54;14.00;60.71
65460;DHT22;52058;49.822;6.754;2023-05-16T10:53:22;14.61;60.02
65460;DHT22;52058;49.822;6.754;2023-05-16T10:56:03;15.09;59.34
65460;DHT22;52058;49.822;6.754;2023-05-16T10:58:42;15.64;58.54
65460;DHT22;52058;49.822;6.754;2023-05-16T11:01:17;15.59;56.60
65460;DHT22;52058;49.822;6.754;2023-05-16T11:04:08;15.60;55.98
65460;DHT22;52058;49.822;6.754;2023-05-16T11:06:44;15.68;55.70
65460;DHT22;52058;49.822;6.754;2023-05-16T11:09:21;15.43;56.38
65460;DHT22;52058;49.822;6.754;2023-05-16T11:11:54;15.59;57.97
65460;DHT22;52058;49.822;6.754;2023-05-16T11:14:24;15.47;56.19
65460;DHT22;52058;49.822;6.754;2023-05-16T11:16:52;14.87;53.86
65460;DHT22;52058;49.822;6.754;2023-05-16T11:19:31;15.09;56.13
65460;DHT22;52058;49.822;6.754;2023-05-16T11:22:09;15.29;56.75
65460;DHT22;52058;49.822;6.754;2023-05-16T11:24:37;15.08;55.99
65460;DHT22;52058;49.822;6.754;2023-05-16T11:27:05;14.98;57.70
65460;DHT22;52058;49.822;6.754;2023-05-16T11:29:32;14.63;56.57
65460;DHT22;52058;49.822;6.754;2023-05-16T11:32:00;14.38;58.04
65460;DHT22;52058;49.822;6.754;2023-05-16T11:34:29;14.45;59.04
65460;DHT22;52058;49.822;6.754;2023-05-16T11:36:57;14.58;58.61
65460;DHT22;52058;49.822;6.754;2023-05-16T11:39:24;15.10;59.37
65460;DHT22;52058;49.822;6.754;2023-05-16T11:41:52;15.26;54.13
65460;DHT22;52058;49.822;6.754;2023-05-16T11:44:18;15.22;53.45
65460;DHT22;52058;49.822;6.754;2023-05-16T11:46:45;15.13;53.50
65460;DHT22;52058;49.822;6.754;2023-05-16T11:49:12;15.10;53.14
65460;DHT22;52058;49.822;6.754;2023-05-16T11:51:40;15.39;53.27
65460;DHT22;52058;49.822;6.754;2023-05-16T11:54:08;15.81;54.45
65460;DHT22;52058;49.822;6.754;2023-05-16T11:56:36;15.94;54.17
65460;DHT22;52058;49.822;6.754;2023-05-16T11:59:02;16.22;53.46
65460;DHT22;52058;49.822;6.754;2023-05-16T12:01:32;16.29;53.56
65460;DHT22;52058;49.822;6.754;2023-05-16T12:03:59;16.59;53.67
65460;DHT22;52058;49.822;6.754;2023-05-16T12:06:26;16.32;54.16
65460;DHT22;52058;49.822;6.754;2023-05-16T12:08:56;15.86;54.08
65460;DHT22;52058;49.822;6.754;2023-05-16T12:11:23;15.57;54.42
65460;DHT22;52058;49.822;6.754;2023-05-16T12:13:50;15.32;54.73
65460;DHT22;52058;49.822;6.754;2023-05-16T12:16:16;15.51;55.65
65460;DHT22;52058;49.822;6.754;2023-05-16T12:18:43;15.50;53.23
65460;DHT22;52058;49.822;6.754;2023-05-16T12:21:11;15.42;54.90
65460;DHT22;52058;49.822;6.754;2023-05-16T12:23:38;15.74;55.19
65460;DHT22;52058;49.822;6.754;2023-05-16T12:26:08;15.88;55.21
65460;DHT22;52058;49.822;6.754;2023-05-16T12:28:35;16.38;56.00
65460;DHT22;52058;49.822;6.754;2023-05-16T12:31:03;16.44;53.29
65460;DHT22;52058;49.822;6.754;2023-05-16T12:33:36;17.24;51.97
65460;DHT22;52058;49.822;6.754;2023-05-16T12:36:03;18.30;51.55
65460;DHT22;52058;49.822;6.754;2023-05-16T12:38:30;18.13;49.04
65460;DHT22;52058;49.822;6.754;2023-05-16T12:40:57;17.97;51.57
65460;DHT22;52058;49.822;6.754;2023-05-16T12:43:25;17.59;51.32
65460;DHT22;52058;49.822;6.754;2023-05-16T12:45:53;17.75;49.11
65460;DHT22;52058;49.822;6.754;2023-05-16T12:48:21;17.11;50.16
65460;DHT22;52058;49.822;6.754;2023-05-16T12:50:48;17.72;49.04
65460;DHT22;52058;49.822;6.754;2023-05-16T12:53:17;19.34;46.96
65460;DHT22;52058;49.822;6.754;2023-05-16T12:55:44;19.68;44.60
65460;DHT22;52058;49.822;6.754;2023-05-16T12:58:10;18.96;47.23
65460;DHT22;52058;49.822;6.754;2023-05-16T13:00:38;18.72;47.07
65460;DHT22;52058;49.822;6.754;2023-05-16T13:03:05;18.45;48.16
65460;DHT22;52058;49.822;6.754;2023-05-16T13:05:32;17.99;48.45
65460;DHT22;52058;49.822;6.754;2023-05-16T13:07:59;17.51;48.17
65460;DHT22;52058;49.822;6.754;2023-05-16T13:10:26;18.27;47.07
65460;DHT22;52058;49.822;6.754;2023-05-16T13:12:53;22.72;42.28
65460;DHT22;52058;49.822;6.754;2023-05-16T13:15:22;25.48;36.98
65460;DHT22;52058;49.822;6.754;2023-05-16T13:17:50;26.70;34.65
65460;DHT22;52058;49.822;6.754;2023-05-16T13:20:17;22.30;39.27
65460;DHT22;52058;49.822;6.754;2023-05-16T13:22:44;20.43;43.78
65460;DHT22;52058;49.822;6.754;2023-05-16T13:25:11;23.12;42.06
65460;DHT22;52058;49.822;6.754;2023-05-16T13:27:37;21.75;44.06
65460;DHT22;52058;49.822;6.754;2023-05-16T13:30:05;23.38;39.73
65460;DHT22;52058;49.822;6.754;2023-05-16T13:32:32;25.27;37.89
65460;DHT22;52058;49.822;6.754;2023-05-16T13:35:00;25.14;37.00
65460;DHT22;52058;49.822;6.754;2023-05-16T13:37:26;26.47;34.80
65460;DHT22;52058;49.822;6.754;2023-05-16T13:39:53;27.42;34.31
65460;DHT22;52058;49.822;6.754;2023-05-16T13:42:20;28.59;32.64
65460;DHT22;52058;49.822;6.754;2023-05-16T13:44:46;25.33;34.78
65460;DHT22;52058;49.822;6.754;2023-05-16T13:47:14;24.17;37.40
65460;DHT22;52058;49.822;6.754;2023-05-16T13:49:40;23.39;37.73
65460;DHT22;52058;49.822;6.754;2023-05-16T13:52:08;21.89;40.53
65460;DHT22;52058;49.822;6.754;2023-05-16T13:54:35;21.41;43.10
65460;DHT22;52058;49.822;6.754;2023-05-16T13:57:01;21.04;43.98
65460;DHT22;52058;49.822;6.754;2023-05-16T13:59:28;19.99;44.72
65460;DHT22;52058;49.822;6.754;2023-05-16T14:01:55;19.75;46.62
65460;DHT22;52058;49.822;6.754;2023-05-16T14:04:21;19.16;46.77
65460;DHT22;52058;49.822;6.754;2023-05-16T14:06:48;18.87;46.76
65460;DHT22;52058;49.822;6.754;2023-05-16T14:09:16;18.20;47.73
65460;DHT22;52058;49.822;6.754;2023-05-16T14:11:43;17.89;48.32
65460;DHT22;52058;49.822;6.754;2023-05-16T14:14:09;17.89;50.05
65460;DHT22;52058;49.822;6.754;2023-05-16T14:16:36;17.02;49.50
65460;DHT22;52058;49.822;6.754;2023-05-16T14:19:02;17.08;51.02
65460;DHT22;52058;49.822;6.754;2023-05-16T14:21:29;21.94;44.01
65460;DHT22;52058;49.822;6.754;2023-05-16T14:23:55;24.96;38.04
65460;DHT22;52058;49.822;6.754;2023-05-16T14:26:23;27.03;35.05
65460;DHT22;52058;49.822;6.754;2023-05-16T14:28:50;26.36;33.99
65460;DHT22;52058;49.822;6.754;2023-05-16T14:31:17;23.67;36.50
65460;DHT22;52058;49.822;6.754;2023-05-16T14:33:44;22.87;39.02
65460;DHT22;52058;49.822;6.754;2023-05-16T14:36:13;22.12;39.45
65460;DHT22;52058;49.822;6.754;2023-05-16T14:38:40;22.06;40.14
65460;DHT22;52058;49.822;6.754;2023-05-16T14:41:07;22.99;39.25
65460;DHT22;52058;49.822;6.754;2023-05-16T14:43:34;22.13;41.22
65460;DHT22;52058;49.822;6.754;2023-05-16T14:46:02;20.55;43.11
65460;DHT22;52058;49.822;6.754;2023-05-16T14:48:28;19.73;45.24
65460;DHT22;52058;49.822;6.754;2023-05-16T14:50:55;18.96;46.38
65460;DHT22;52058;49.822;6.754;2023-05-16T14:53:22;18.50;47.05
65460;DHT22;52058;49.822;6.754;2023-05-16T14:55:48;22.09;42.79
65460;DHT22;52058;49.822;6.754;2023-05-16T14:58:15;22.54;40.61
65460;DHT22;52058;49.822;6.754;2023-05-16T15:00:43;21.01;42.80
65460;DHT22;52058;49.822;6.754;2023-05-16T15:03:09;20.28;44.87
65460;DHT22;52058;49.822;6.754;2023-05-16T15:05:36;19.43;45.11
65460;DHT22;52058;49.822;6.754;2023-05-16T15:08:03;19.19;46.01
65460;DHT22;52058;49.822;6.754;2023-05-16T15:10:30;18.79;46.94
65460;DHT22;52058;49.822;6.754;2023-05-16T15:13:04;18.38;47.79
65460;DHT22;52058;49.822;6.754;2023-05-16T15:15:31;18.38;47.96
65460;DHT22;52058;49.822;6.754;2023-05-16T15:18:00;18.38;48.74
65460;DHT22;52058;49.822;6.754;2023-05-16T15:20:26;18.40;50.69
65460;DHT22;52058;49.822;6.754;2023-05-16T15:22:53;19.03;48.06
65460;DHT22;52058;49.822;6.754;2023-05-16T15:25:20;21.76;44.90
65460;DHT22;52058;49.822;6.754;2023-05-16T15:27:46;19.75;47.41
65460;DHT22;52058;49.822;6.754;2023-05-16T15:30:13;18.57;48.21
65460;DHT22;52058;49.822;6.754;2023-05-16T15:32:40;18.14;49.10